sensor_id;sensor_type;location;lat;lon;timestamp;pressure;altitude;pressure_sealevel;temperature;humidity
23118;BME280;11728;50.624;6.014;2023-05-19T00:04:26;99170.16;;;8.18;77.61
23118;BME280;11728;50.624;6.014;2023-05-19T00:09:47;99163.94;;;8.04;77.83
23118;BME280;11728;50.624;6.014;2023-05-19T00:15:08;99170.06;;;7.89;78.73
23118;BME280;11728;50.624;6.014;2023-05-19T00:20:30;99167.44;;;7.77;79.38
23118;BME280;11728;50.624;6.014;2023-05-19T00:25:50;99170.91;;;7.67;79.79
23118;BME280;11728;50.624;6.014;2023-05-19T00:31:13;99165.59;;;7.59;80.20
23118;BME280;11728;50.624;6.014;2023-05-19T00:36:34;99164.72;;;7.49;80.57
23118;BME280;11728;50.624;6.014;2023-05-19T00:41:54;99162.06;;;7.45;81.05
23118;BME280;11728;50.624;6.014;2023-05-19T00:47:15;99156.81;;;7.45;81.11
23118;BME280;11728;50.624;6.014;2023-05-19T00:52:36;99153.28;;;7.37;81.74
23118;BME280;11728;50.624;6.014;2023-05-19T00:57:57;99149.75;;;7.29;82.47
23118;BME280;11728;50.624;6.014;2023-05-19T01:03:18;99144.44;;;7.17;83.14
23118;BME280;11728;50.624;6.014;2023-05-19T01:08:39;99146.16;;;7.09;83.70
23118;BME280;11728;50.624;6.014;2023-05-19T01:14:00;99142.63;;;7.01;84.64
23118;BME280;11728;50.624;6.014;2023-05-19T01:30:41;99126.81;;;6.93;84.14
23118;BME280;11728;50.624;6.014;2023-05-19T01:36:03;99125.94;;;6.86;83.83
23118;BME280;11728;50.624;6.014;2023-05-19T01:41:26;99126.75;;;6.74;84.24
23118;BME280;11728;50.624;6.014;2023-05-19T01:46:49;99122.28;;;6.66;85.02
23118;BME280;11728;50.624;6.014;2023-05-19T01:52:10;99123.19;;;6.66;85.02
23118;BME280;11728;50.624;6.014;2023-05-19T02:09:25;99130.09;;;6.57;86.03
23118;BME280;11728;50.624;6.014;2023-05-19T02:14:57;99117.84;;;6.54;86.46
23118;BME280;11728;50.624;6.014;2023-05-19T02:20:19;99108.22;;;6.50;86.03
23118;BME280;11728;50.624;6.014;2023-05-19T02:25:41;99098.59;;;6.48;86.22
23118;BME280;11728;50.624;6.014;2023-05-19T02:31:02;99101.16;;;6.42;86.85
23118;BME280;11728;50.624;6.014;2023-05-19T02:36:25;99098.50;;;6.34;87.35
23118;BME280;11728;50.624;6.014;2023-05-19T02:41:47;99090.63;;;6.34;87.20
23118;BME280;11728;50.624;6.014;2023-05-19T02:47:08;99087.97;;;6.28;87.23
23118;BME280;11728;50.624;6.014;2023-05-19T02:52:29;99089.72;;;6.32;86.93
23118;BME280;11728;50.624;6.014;2023-05-19T02:57:49;99092.34;;;6.31;86.77
23118;BME280;11728;50.624;6.014;2023-05-19T03:03:10;99095.81;;;6.24;86.79
23118;BME280;11728;50.624;6.014;2023-05-19T03:08:31;99096.69;;;6.27;86.89
23118;BME280;11728;50.624;6.014;2023-05-19T03:13:52;99097.59;;;6.32;86.70
23118;BME280;11728;50.624;6.014;2023-05-19T03:19:12;99101.13;;;6.33;86.75
23118;BME280;11728;50.624;6.014;2023-05-19T03:24:33;99104.56;;;6.29;86.83
23118;BME280;11728;50.624;6.014;2023-05-19T03:29:54;99103.78;;;6.40;86.85
23118;BME280;11728;50.624;6.014;2023-05-19T03:35:15;99093.31;;;6.45;86.29
23118;BME280;11728;50.624;6.014;2023-05-19T03:40:36;99093.31;;;6.45;86.00
23118;BME280;11728;50.624;6.014;2023-05-19T03:45:57;99088.00;;;6.34;86.61
23118;BME280;11728;50.624;6.014;2023-05-19T03:51:17;99087.94;;;6.27;87.06
23118;BME280;11728;50.624;6.014;2023-05-19T03:56:38;99101.88;;;6.20;87.46
23118;BME280;11728;50.624;6.014;2023-05-19T04:02:00;99109.81;;;6.29;87.43
23118;BME280;11728;50.624;6.014;2023-05-19T04:07:21;99104.56;;;6.30;87.43
23118;BME280;11728;50.624;6.014;2023-05-19T04:12:41;99100.22;;;6.31;87.20
23118;BME280;11728;50.624;6.014;2023-05-19T04:18:02;99110.69;;;6.28;87.61
23118;BME280;11728;50.624;6.014;2023-05-19T04:23:23;99115.88;;;6.22;88.33
23118;BME280;11728;50.624;6.014;2023-05-19T04:28:44;99121.13;;;6.23;88.61
23118;BME280;11728;50.624;6.014;2023-05-19T04:34:05;99122.94;;;6.30;88.48
23118;BME280;11728;50.624;6.014;2023-05-19T04:39:29;99120.41;;;6.44;88.36
23118;BME280;11728;50.624;6.014;2023-05-19T04:44:50;99117.88;;;6.56;87.81
23118;BME280;11728;50.624;6.014;2023-05-19T04:50:11;99124.09;;;6.71;87.66
23118;BME280;11728;50.624;6.014;2023-05-19T04:55:32;99113.69;;;6.93;86.72
23118;BME280;11728;50.624;6.014;2023-05-19T05:00:53;99119.06;;;7.16;86.04
23118;BME280;11728;50.624;6.014;2023-05-19T05:06:20;99121.75;;;7.49;84.93
23118;BME280;11728;50.624;6.014;2023-05-19T05:11:42;99119.19;;;7.78;84.27
23118;BME280;11728;50.624;6.014;2023-05-19T05:17:03;99109.63;;;8.16;82.84
23118;BME280;11728;50.624;6.014;2023-05-19T05:22:24;99102.59;;;8.46;81.53
23118;BME280;11728;50.624;6.014;2023-05-19T05:27:45;99104.28;;;8.73;80.63
23118;BME280;11728;50.624;6.014;2023-05-19T05:33:06;99100.75;;;8.84;80.12
23118;BME280;11728;50.624;6.014;2023-05-19T05:38:27;99100.66;;;9.10;79.66
23118;BME280;11728;50.624;6.014;2023-05-19T05:43:47;99097.88;;;9.36;79.05
23118;BME280;11728;50.624;6.014;2023-05-19T05:49:08;99095.88;;;9.79;78.45
23118;BME280;11728;50.624;6.014;2023-05-19T05:54:30;99085.56;;;10.54;76.54
23118;BME280;11728;50.624;6.014;2023-05-19T05:59:51;99085.75;;;11.15;74.63
23118;BME280;11728;50.624;6.014;2023-05-19T06:05:12;99080.66;;;11.68;73.05
23118;BME280;11728;50.624;6.014;2023-05-19T06:10:42;99071.28;;;12.03;71.51
23118;BME280;11728;50.624;6.014;2023-05-19T06:16:08;99066.28;;;12.36;71.02
23118;BME280;11728;50.624;6.014;2023-05-19T06:21:32;99069.94;;;12.78;70.03
23118;BME280;11728;50.624;6.014;2023-05-19T06:27:13;99071.59;;;13.28;68.78
23118;BME280;11728;50.624;6.014;2023-05-19T06:32:49;99068.03;;;13.69;67.80
23118;BME280;11728;50.624;6.014;2023-05-19T06:38:21;99073.16;;;14.15;66.90
23118;BME280;11728;50.624;6.014;2023-05-19T06:43:58;99074.00;;;14.84;65.38
23118;BME280;11728;50.624;6.014;2023-05-19T06:50:21;99067.06;;;15.40;63.77
23118;BME280;11728;50.624;6.014;2023-05-19T06:55:56;99067.41;;;15.86;62.98
23118;BME280;11728;50.624;6.014;2023-05-19T07:01:43;99064.44;;;16.22;61.62
23118;BME280;11728;50.624;6.014;2023-05-19T07:07:24;99069.25;;;16.65;60.94
23118;BME280;11728;50.624;6.014;2023-05-19T07:12:52;99072.72;;;17.15;60.00
23118;BME280;11728;50.624;6.014;2023-05-19T07:18:18;99067.34;;;17.87;57.77
23118;BME280;11728;50.624;6.014;2023-05-19T07:23:51;99062.75;;;18.12;56.83
23118;BME280;11728;50.624;6.014;2023-05-19T07:29:21;99051.19;;;18.33;54.80
23118;BME280;11728;50.624;6.014;2023-05-19T07:34:49;99057.06;;;18.83;54.78
23118;BME280;11728;50.624;6.014;2023-05-19T07:47:14;99051.66;;;20.00;50.08
23118;BME280;11728;50.624;6.014;2023-05-19T07:52:47;99043.44;;;20.73;49.05
23118;BME280;11728;50.624;6.014;2023-05-19T07:58:26;99037.22;;;21.23;48.45
23118;BME280;11728;50.624;6.014;2023-05-19T08:04:36;99045.44;;;21.85;45.65
23118;BME280;11728;50.624;6.014;2023-05-19T08:10:10;99034.56;;;21.71;45.51
23118;BME280;11728;50.624;6.014;2023-05-19T08:16:05;99038.53;;;22.12;43.32
23118;BME280;11728;50.624;6.014;2023-05-19T08:21:45;99032.06;;;22.60;41.82
23118;BME280;11728;50.624;6.014;2023-05-19T08:27:09;99012.22;;;23.06;41.70
23118;BME280;11728;50.624;6.014;2023-05-19T08:32:40;99013.50;;;23.42;40.56
23118;BME280;11728;50.624;6.014;2023-05-19T08:38:18;99011.56;;;23.44;39.93
23118;BME280;11728;50.624;6.014;2023-05-19T08:50:16;99012.41;;;24.41;38.10
23118;BME280;11728;50.624;6.014;2023-05-19T08:56:13;99003.69;;;24.76;37.82
23118;BME280;11728;50.624;6.014;2023-05-19T09:01:46;98989.09;;;25.17;36.95
23118;BME280;11728;50.624;6.014;2023-05-19T09:07:27;98983.66;;;25.30;35.84
23118;BME280;11728;50.624;6.014;2023-05-19T09:13:19;98985.66;;;26.01;36.07
23118;BME280;11728;50.624;6.014;2023-05-19T09:18:55;98994.97;;;26.09;34.66
23118;BME280;11728;50.624;6.014;2023-05-19T09:24:24;98981.47;;;26.20;34.26
23118;BME280;11728;50.624;6.014;2023-05-19T09:29:47;98968.28;;;26.16;34.49
23118;BME280;11728;50.624;6.014;2023-05-19T09:35:08;98967.75;;;26.34;33.98
